Terminal Aerodrome Forecast
Issued by NWS

Home | Current Version | Previous Version | Text Only | Print | Product List | Glossary On
Versions: 1 2 3 4 5 6 7 8 9 10 11 12
000
FTUS45 KVEF 241700
TAFDAG
TAF
KDAG 241720Z 2418/2518 31010KT P6SM FEW250
     FM250100 26012KT P6SM SCT250
     FM250800 27010KT P6SM BKN150=

USA.gov is the U.S. government's official web portal to all federal, state and local government web resources and services.